Time;durP1;ratioP1;P1;durP2;ratioP2;P2;SDS_P1;SDS_P2;PMS_P1;PMS_P2;Temp;Humidity;BMP_temperature;BMP_pressure;BME280_temperature;BME280_humidity;BME280_pressure;Samples;Min_cycle;Max_cycle;Signal;HPM_P1;HPM_P2
2022/01/27 00:03:30;;;;;;;6.80;3.58;;;;;;;18.80;53.00;97898.47;10408135;28;20504;-22
2022/01/27 00:08:40;;;;;;;8.48;4.03;;;;;;;18.79;52.99;97901.84;10442197;28;20479;-23
2022/01/27 00:13:48;;;;;;;9.15;3.88;;;;;;;18.82;53.00;97907.00;10415853;28;20061;-22
2022/01/27 00:18:51;;;;;;;7.45;4.18;;;;;;;18.82;52.97;97907.00;10407637;28;20065;-22
2022/01/27 00:23:52;;;;;;;4.40;3.67;;;;;;;18.82;52.87;97904.47;10449162;28;20049;-22
2022/01/27 00:28:53;;;;;;;9.88;4.30;;;;;;;18.78;52.65;97897.59;10450829;28;20514;-22
2022/01/27 00:33:54;;;;;;;7.45;3.67;;;;;;;18.82;52.97;97904.47;10456609;28;20036;-22
2022/01/27 00:38:54;;;;;;;3.95;2.97;;;;;;;18.81;53.10;97902.72;10419703;28;20033;-22
2022/01/27 00:43:55;;;;;;;5.63;3.43;;;;;;;18.80;53.06;97898.47;10448634;28;20040;-23
2022/01/27 00:48:55;;;;;;;12.38;3.65;;;;;;;18.80;53.34;97901.00;10442988;28;20055;-22
2022/01/27 00:54:16;;;;;;;7.13;4.60;;;;;;;18.78;53.15;97905.22;10414610;28;20041;-22
2022/01/27 01:04:24;;;;;;;5.40;3.53;;;;;;;18.82;52.80;97905.28;10414023;28;20033;-22
2022/01/27 01:14:51;;;;;;;5.03;3.78;;;;;;;18.78;53.11;97897.59;10414039;28;20419;-22
2022/01/27 01:35:14;;;;;;;5.93;3.38;;;;;;;18.77;53.15;97899.28;10446894;28;20400;-22
2022/01/27 01:40:16;;;;;;;5.22;3.03;;;;;;;18.78;53.04;97900.13;10414689;28;20388;-22
2022/01/27 01:45:19;;;;;;;3.85;3.08;;;;;;;18.77;53.11;97894.19;10454045;28;20037;-22
2022/01/27 01:50:19;;;;;;;4.40;3.03;;;;;;;18.79;52.92;97889.16;10452059;28;20037;-22
2022/01/27 01:55:20;;;;;;;5.17;3.23;;;;;;;18.75;53.22;97883.19;10447740;28;20056;-22
2022/01/27 02:00:20;;;;;;;6.97;3.38;;;;;;;18.77;53.15;97880.69;10411556;28;20296;-22
2022/01/27 02:05:26;;;;;;;6.30;3.87;;;;;;;18.78;53.02;97867.16;10416669;28;20111;-22
2022/01/27 02:21:04;;;;;;;4.68;3.30;;;;;;;18.77;53.01;97850.22;10425107;28;20082;-22
2022/01/27 02:26:04;;;;;;;6.23;3.23;;;;;;;18.77;53.07;97848.53;10440675;28;20171;-23
2022/01/27 02:31:05;;;;;;;4.20;2.70;;;;;;;18.79;53.06;97851.09;10410812;28;20044;-22
2022/01/27 02:36:05;;;;;;;3.53;2.90;;;;;;;18.76;53.17;97853.59;10434294;28;20535;-23
2022/01/27 02:41:07;;;;;;;5.25;3.10;;;;;;;18.77;53.01;97855.31;10439193;28;20174;-23
2022/01/27 02:46:17;;;;;;;3.90;3.10;;;;;;;18.78;52.76;97857.00;10414323;28;20089;-22
2022/01/27 02:51:18;;;;;;;3.85;2.90;;;;;;;18.77;52.85;97850.22;10431949;28;20028;-23
2022/01/27 02:56:19;;;;;;;5.63;3.45;;;;;;;18.76;53.43;97848.53;10446544;28;20092;-22
2022/01/27 03:01:21;;;;;;;6.30;3.20;;;;;;;18.74;53.03;97843.41;10420284;28;20457;-23
2022/01/27 03:06:21;;;;;;;3.58;2.80;;;;;;;18.68;53.08;97830.63;10447327;28;20320;-22
2022/01/27 03:11:45;;;;;;;3.03;2.50;;;;;;;18.74;52.78;97838.34;10444771;28;20033;-22
2022/01/27 03:16:47;;;;;;;4.00;2.75;;;;;;;18.75;52.81;97831.59;10420353;28;20037;-22
2022/01/27 03:21:49;;;;;;;5.93;3.30;;;;;;;18.77;52.74;97835.00;10454066;28;20021;-23
2022/01/27 03:26:51;;;;;;;3.40;2.67;;;;;;;18.79;52.80;97835.88;10443866;28;20098;-22
2022/01/27 03:31:51;;;;;;;4.20;3.10;;;;;;;18.75;53.02;97831.59;10421849;28;20555;-22
2022/01/27 03:36:52;;;;;;;3.55;2.83;;;;;;;18.77;52.66;97825.69;10461444;28;20072;-22
2022/01/27 03:41:55;;;;;;;3.80;2.90;;;;;;;18.78;52.78;97821.50;10444340;28;20112;-23
2022/01/27 03:46:55;;;;;;;5.72;2.97;;;;;;;18.79;52.71;97823.19;10409414;28;20438;-22
2022/01/27 03:52:01;;;;;;;4.55;3.08;;;;;;;18.78;52.89;97826.56;10435976;28;20159;-23
2022/01/27 03:57:01;;;;;;;4.35;2.90;;;;;;;18.78;52.84;97835.03;10434937;28;20033;-22
2022/01/27 04:02:04;;;;;;;2.80;2.60;;;;;;;18.76;52.78;97844.28;10414119;28;20037;-23
2022/01/27 04:07:05;;;;;;;3.90;3.17;;;;;;;18.76;52.79;97851.06;10449589;28;20029;-22
2022/01/27 04:12:05;;;;;;;7.17;3.23;;;;;;;18.76;52.97;97866.28;10436942;28;20642;-22
2022/01/27 04:17:06;;;;;;;3.38;2.97;;;;;;;18.74;52.98;97876.41;10415946;28;20300;-22
2022/01/27 04:22:06;;;;;;;3.13;2.67;;;;;;;18.73;52.91;97889.03;10439598;28;20040;-22
2022/01/27 04:27:16;;;;;;;3.33;2.80;;;;;;;18.73;53.03;97899.19;10436553;28;20523;-23
2022/01/27 04:32:22;;;;;;;4.65;2.92;;;;;;;18.73;52.67;97899.19;10415397;28;20091;-22
2022/01/27 04:37:25;;;;;;;3.08;2.78;;;;;;;18.77;52.86;97900.97;10416127;28;20120;-23
2022/01/27 04:42:41;;;;;;;3.85;3.03;;;;;;;18.80;52.64;97901.00;10434339;28;20545;-23
2022/01/27 04:47:46;;;;;;;3.85;2.50;;;;;;;18.76;52.62;97897.56;10456491;28;20033;-22
2022/01/27 04:52:50;;;;;;;4.88;3.00;;;;;;;18.78;53.34;97883.25;10433058;28;20040;-22
2022/01/27 04:58:04;;;;;;;5.53;2.55;;;;;;;18.78;52.69;97859.53;10432879;28;20111;-22
2022/01/27 05:03:15;;;;;;;3.70;2.60;;;;;;;18.84;52.35;97854.59;10455664;28;20037;-23
2022/01/27 05:08:18;;;;;;;3.17;2.83;;;;;;;18.85;51.88;97848.69;10419478;28;20108;-22
2022/01/27 05:13:20;;;;;;;3.58;2.47;;;;;;;18.85;52.29;97830.91;10414338;28;20048;-22
2022/01/27 05:18:21;;;;;;;4.18;2.92;;;;;;;18.87;52.09;97821.63;10414390;28;20091;-22
2022/01/27 05:23:21;;;;;;;5.45;3.78;;;;;;;18.82;52.49;97818.19;10446895;28;20503;-22
2022/01/27 05:28:22;;;;;;;4.00;3.30;;;;;;;18.86;52.11;97804.69;10452733;28;20055;-23
2022/01/27 05:33:22;;;;;;;5.60;3.53;;;;;;;18.83;51.79;97809.75;10444375;28;20071;-23
2022/01/27 05:38:22;;;;;;;6.87;3.60;;;;;;;18.82;51.83;97808.03;10412688;28;20306;-23
2022/01/27 05:43:23;;;;;;;5.03;3.27;;;;;;;18.84;51.60;97806.38;10411788;28;20428;-23
2022/01/27 05:48:23;;;;;;;5.43;3.50;;;;;;;18.85;51.72;97808.91;10416796;28;20287;-23
2022/01/27 05:53:24;;;;;;;8.30;3.60;;;;;;;18.85;52.17;97798.75;10440151;28;20670;-23
2022/01/27 05:58:25;;;;;;;6.07;3.40;;;;;;;18.62;52.31;97781.47;10446966;28;20033;-23
2022/01/27 06:03:26;;;;;;;8.02;3.42;;;;;;;18.84;52.01;97819.06;10452425;28;20286;-23
2022/01/27 06:08:28;;;;;;;7.17;3.50;;;;;;;18.84;51.56;97811.44;10411559;28;20106;-23
2022/01/27 06:13:29;;;;;;;3.97;3.35;;;;;;;18.81;53.14;97814.78;10439788;28;20298;-23
2022/01/27 06:18:29;;;;;;;6.82;3.70;;;;;;;18.77;53.04;97824.84;10452301;28;20048;-23
2022/01/27 06:23:31;;;;;;;7.57;2.83;;;;;;;18.77;52.76;97829.94;10450902;28;20043;-23
2022/01/27 06:28:31;;;;;;;5.57;3.33;;;;;;;18.76;52.68;97825.69;10418681;28;20960;-23
2022/01/27 06:33:32;;;;;;;5.53;2.80;;;;;;;18.73;52.68;97821.41;10419216;28;20186;-23
2022/01/27 06:38:32;;;;;;;3.42;3.13;;;;;;;18.72;52.90;97812.09;10451782;28;20033;-23
2022/01/27 06:43:33;;;;;;;5.03;3.33;;;;;;;18.76;52.26;97813.00;10420159;28;20045;-23
2022/01/27 06:48:33;;;;;;;5.47;2.83;;;;;;;18.74;52.76;97805.38;10410538;28;20276;-23
2022/01/27 06:53:33;;;;;;;7.07;3.53;;;;;;;18.74;52.67;97805.38;10447268;28;20051;-23
2022/01/27 06:58:36;;;;;;;5.43;2.77;;;;;;;18.75;52.56;97803.69;10419170;28;20318;-23
2022/01/27 07:03:36;;;;;;;7.60;3.50;;;;;;;18.84;52.51;97816.53;10409355;28;20037;-23
2022/01/27 07:08:36;;;;;;;6.57;3.60;;;;;;;18.83;51.83;97823.25;10446728;28;20040;-23
2022/01/27 07:13:40;;;;;;;4.30;3.30;;;;;;;18.83;51.61;97841.03;10418286;28;20171;-23
2022/01/27 07:18:41;;;;;;;5.13;3.72;;;;;;;18.76;52.21;97854.44;10409342;28;20303;-23
2022/01/27 07:23:42;;;;;;;7.00;3.17;;;;;;;18.81;51.77;97867.19;10446306;28;20044;-23
2022/01/27 07:28:42;;;;;;;11.93;7.10;;;;;;;18.36;48.77;97884.16;10448350;28;20384;-23
2022/01/27 07:33:42;;;;;;;12.32;5.45;;;;;;;18.72;49.13;97912.72;10447919;28;20276;-23
2022/01/27 07:38:43;;;;;;;8.87;5.30;;;;;;;18.77;49.67;97913.66;10406413;28;20033;-22
2022/01/27 07:43:45;;;;;;;7.97;4.50;;;;;;;18.76;49.99;97919.56;10408450;28;20052;-23
2022/01/27 07:48:45;;;;;;;6.57;4.25;;;;;;;18.77;50.24;97928.88;10415462;28;20033;-23
2022/01/27 07:53:46;;;;;;;8.05;5.07;;;;;;;18.79;50.76;97929.75;10449645;28;20063;-23
2022/01/27 07:58:46;;;;;;;19.47;5.27;;;;;;;18.82;50.41;97929.84;10447745;28;20086;-22
2022/01/27 08:03:47;;;;;;;13.30;4.55;;;;;;;18.78;51.03;97930.59;10442735;28;20029;-22
2022/01/27 08:08:48;;;;;;;12.97;4.60;;;;;;;18.79;51.08;97925.56;10408597;28;20034;-23
2022/01/27 08:13:49;;;;;;;6.43;4.53;;;;;;;18.77;51.13;97931.41;10440160;28;20450;-23
2022/01/27 08:18:49;;;;;;;8.30;3.78;;;;;;;18.78;51.28;97923.84;10443529;28;20303;-23
2022/01/27 08:23:51;;;;;;;5.90;3.97;;;;;;;18.77;51.26;97923.81;10448229;28;20487;-22
2022/01/27 08:28:59;;;;;;;7.93;4.45;;;;;;;18.80;51.22;97918.78;10406442;28;20033;-22
2022/01/27 08:34:03;;;;;;;7.68;4.20;;;;;;;18.77;51.38;97918.72;10407579;28;20225;-23
2022/01/27 08:39:04;;;;;;;5.22;3.63;;;;;;;18.79;51.54;97899.31;10444174;28;20033;-22
2022/01/27 08:44:04;;;;;;;7.33;4.03;;;;;;;18.83;51.36;97885.88;10412460;28;20041;-22
2022/01/27 08:49:06;;;;;;;7.38;3.67;;;;;;;18.81;51.55;97867.19;10409689;28;20029;-23
2022/01/27 08:54:06;;;;;;;4.50;3.17;;;;;;;18.83;51.48;97860.50;10415304;28;20113;-23
2022/01/27 08:59:07;;;;;;;6.27;4.07;;;;;;;18.83;51.52;97865.56;10414378;28;20117;-23
2022/01/27 09:04:08;;;;;;;4.68;3.92;;;;;;;18.85;51.41;97866.44;10416088;28;20033;-23
2022/01/27 09:09:09;;;;;;;4.85;3.50;;;;;;;18.87;51.42;97869.84;10455804;28;20081;-22
2022/01/27 09:14:09;;;;;;;6.28;3.83;;;;;;;18.74;51.76;97865.41;10454776;28;20110;-22
2022/01/27 09:19:10;;;;;;;4.05;3.65;;;;;;;18.81;51.83;97903.59;10446051;28;20112;-22
2022/01/27 09:24:14;;;;;;;6.53;3.90;;;;;;;18.82;51.84;97907.00;10414156;28;20033;-23
2022/01/27 09:29:17;;;;;;;6.05;3.75;;;;;;;18.84;51.90;97912.94;10449778;28;20295;-23
2022/01/27 09:34:18;;;;;;;6.20;3.60;;;;;;;18.88;51.88;97919.75;10442826;28;20628;-23
2022/01/27 09:39:20;;;;;;;5.43;3.65;;;;;;;18.86;52.03;97926.50;10444030;28;20495;-23
2022/01/27 09:44:27;;;;;;;7.18;4.45;;;;;;;18.84;51.92;97918.84;10437085;28;20044;-23
2022/01/27 09:49:35;;;;;;;7.18;4.25;;;;;;;18.82;52.19;97917.97;10427656;28;20111;-23
2022/01/27 09:54:36;;;;;;;7.80;3.80;;;;;;;18.79;52.20;97922.16;10454026;28;20040;-23
2022/01/27 09:59:36;;;;;;;6.32;4.03;;;;;;;18.71;52.13;97905.94;10412285;28;20041;-23
2022/01/27 10:04:57;;;;;;;9.80;3.63;;;;;;;18.92;51.90;97931.69;10429180;28;20529;-23
2022/01/27 10:10:05;;;;;;;7.45;4.20;;;;;;;18.68;51.63;97883.06;10451356;28;20036;-23
2022/01/27 10:15:17;;;;;;;7.47;4.18;;;;;;;19.01;51.45;97937.75;10453655;28;20035;-22
2022/01/27 10:20:18;;;;;;;10.43;5.40;;;;;;;19.00;51.45;97930.16;10430262;28;20061;-22
2022/01/27 10:25:21;;;;;;;8.55;4.40;;;;;;;18.97;51.40;97919.91;10414706;28;20104;-22
2022/01/27 10:35:27;;;;;;;6.00;4.20;;;;;;;18.92;51.53;97924.09;10432108;28;20514;-22
2022/01/27 10:40:36;;;;;;;6.80;4.10;;;;;;;18.86;51.96;97907.06;10414867;28;20104;-23
2022/01/27 10:45:58;;;;;;;5.97;3.95;;;;;;;18.86;51.65;97902.00;10452787;28;20499;-23
2022/01/27 10:51:13;;;;;;;6.22;3.88;;;;;;;18.81;51.77;97887.50;10451639;28;20072;-23
2022/01/27 10:56:18;;;;;;;6.18;3.75;;;;;;;18.87;51.60;97882.53;10440234;28;20167;-23
2022/01/27 11:01:24;;;;;;;6.95;4.00;;;;;;;18.83;51.99;97875.72;10409696;28;20124;-23
2022/01/27 11:06:26;;;;;;;7.47;4.30;;;;;;;18.82;51.88;97863.84;10431224;28;20033;-23
2022/01/27 11:11:27;;;;;;;7.03;3.85;;;;;;;18.82;51.69;97871.47;10436198;28;20025;-23
2022/01/27 11:16:34;;;;;;;5.97;4.32;;;;;;;18.81;51.88;97872.28;10428822;28;20037;-22
2022/01/27 11:21:39;;;;;;;5.45;4.13;;;;;;;18.81;51.83;97877.34;10431250;28;20559;-23
2022/01/27 11:26:41;;;;;;;6.57;3.97;;;;;;;18.80;51.68;97873.97;10439172;28;20071;-23
2022/01/27 11:32:00;;;;;;;6.90;3.75;;;;;;;18.80;51.84;97890.88;10433022;28;20099;-23
2022/01/27 11:37:06;;;;;;;5.03;3.47;;;;;;;18.79;51.77;97889.16;10443975;28;20112;-22
2022/01/27 11:42:06;;;;;;;4.63;3.57;;;;;;;18.86;51.38;97901.13;10406830;28;20043;-23
2022/01/27 11:52:23;;;;;;;4.20;3.42;;;;;;;18.84;51.39;97900.25;10408971;28;20070;-23
2022/01/27 11:57:43;;;;;;;4.20;3.63;;;;;;;18.81;51.50;97902.72;10392907;28;20112;-23
2022/01/27 12:02:56;;;;;;;5.45;3.30;;;;;;;18.54;51.41;97856.59;10395073;28;20033;-23
2022/01/27 12:08:19;;;;;;;15.52;8.02;;;;;;;18.65;50.07;97903.28;10395481;28;20040;-23
2022/01/27 12:13:43;;;;;;;8.63;4.65;;;;;;;18.84;50.52;97897.72;10418796;28;20078;-22
2022/01/27 12:18:43;;;;;;;6.15;4.10;;;;;;;18.83;50.79;97891.78;10395357;28;20527;-23
2022/01/27 12:29:37;;;;;;;6.78;4.45;;;;;;;18.67;51.58;97869.50;10404548;28;20073;-23
2022/01/27 12:34:38;;;;;;;7.25;4.43;;;;;;;18.74;51.66;97880.63;10443151;28;20051;-23
2022/01/27 12:39:39;;;;;;;6.72;4.10;;;;;;;18.77;51.52;97878.97;10456711;28;20128;-23
2022/01/27 12:44:51;;;;;;;5.65;4.20;;;;;;;18.76;51.15;97868.81;10414988;28;20409;-23
2022/01/27 12:50:06;;;;;;;6.93;4.40;;;;;;;18.75;51.74;97856.97;10403717;28;20037;-23
2022/01/27 12:55:12;;;;;;;7.45;4.65;;;;;;;18.73;51.60;97834.09;10379140;28;20551;-23
2022/01/27 13:00:13;;;;;;;7.85;3.88;;;;;;;18.73;51.76;97830.69;10413761;28;20043;-22
2022/01/27 13:05:14;;;;;;;6.95;4.43;;;;;;;18.69;51.61;97828.94;10410265;28;20044;-23
2022/01/27 13:10:19;;;;;;;6.53;4.60;;;;;;;18.68;51.69;97817.09;10402608;28;20037;-23
2022/01/27 13:15:22;;;;;;;8.73;5.13;;;;;;;18.78;51.30;97817.28;10455288;28;20175;-22
2022/01/27 13:20:35;;;;;;;12.80;7.07;;;;;;;18.64;48.44;97813.66;10438069;28;20037;-23
2022/01/27 13:25:41;;;;;;;10.68;5.82;;;;;;;18.60;50.96;97816.13;10418635;28;20407;-23
2022/01/27 13:30:42;;;;;;;12.80;6.18;;;;;;;18.66;51.19;97827.22;10454523;28;20033;-23
2022/01/27 13:35:43;;;;;;;15.30;6.47;;;;;;;18.69;51.30;97821.34;10428539;28;20059;-23
2022/01/27 13:46:02;;;;;;;13.60;7.05;;;;;;;18.46;51.02;97807.41;10439300;28;20036;-23
2022/01/27 13:51:03;;;;;;;16.00;6.35;;;;;;;18.57;51.26;97800.84;10412271;28;20514;-23
2022/01/27 13:56:04;;;;;;;16.83;6.65;;;;;;;18.55;51.35;97782.19;10427526;28;20044;-23
2022/01/27 14:01:09;;;;;;;13.57;5.55;;;;;;;18.64;51.35;97797.56;10412582;28;20049;-22
2022/01/27 14:06:10;;;;;;;11.23;5.32;;;;;;;18.66;51.40;97791.69;10436543;28;20037;-23
2022/01/27 14:11:16;;;;;;;12.18;5.53;;;;;;;18.65;51.52;97790.00;10440797;28;20048;-23
2022/01/27 14:16:25;;;;;;;10.80;5.38;;;;;;;18.65;51.39;97789.13;10411751;28;20033;-23
2022/01/27 14:21:26;;;;;;;9.07;4.78;;;;;;;18.64;51.66;97792.50;10440877;28;20029;-23
2022/01/27 14:31:37;;;;;;;7.32;4.95;;;;;;;18.68;51.68;97806.94;10411586;28;20037;-23
2022/01/27 14:36:41;;;;;;;9.43;4.97;;;;;;;18.53;51.63;97781.31;10427640;28;20037;-23
2022/01/27 14:41:41;;;;;;;11.50;5.20;;;;;;;18.69;51.32;97811.19;10435783;28;20702;-23
2022/01/27 14:46:45;;;;;;;9.02;5.18;;;;;;;18.68;51.75;97817.09;10410221;28;20043;-23
2022/01/27 14:51:46;;;;;;;5.90;4.00;;;;;;;18.66;51.83;97831.44;10441840;28;20104;-22
2022/01/27 14:56:49;;;;;;;7.53;4.35;;;;;;;18.62;51.58;97820.41;10434309;28;20034;-23
2022/01/27 15:01:49;;;;;;;9.27;5.00;;;;;;;18.65;51.82;97822.09;10409648;28;20033;-23
2022/01/27 15:06:50;;;;;;;7.37;4.67;;;;;;;18.66;51.65;97814.53;10410102;28;20033;-23
2022/01/27 15:11:50;;;;;;;6.17;4.27;;;;;;;18.66;51.66;97806.91;10425111;28;20032;-23
2022/01/27 15:22:10;;;;;;;8.50;5.00;;;;;;;18.64;51.87;97805.19;10448673;28;21046;-23
2022/01/27 15:27:10;;;;;;;7.05;4.05;;;;;;;18.64;51.80;97795.03;10429664;28;20040;-23
2022/01/27 15:32:13;;;;;;;9.30;4.80;;;;;;;18.69;51.51;97786.69;10409667;28;20095;-22
2022/01/27 15:37:14;;;;;;;6.88;4.38;;;;;;;18.67;51.88;97782.41;10408996;28;20037;-23
2022/01/27 15:42:15;;;;;;;6.05;3.90;;;;;;;18.66;51.74;97781.56;10408923;28;20041;-23
2022/01/27 15:47:16;;;;;;;8.43;5.28;;;;;;;18.65;52.08;97784.91;10409004;28;20040;-22
2022/01/27 15:52:17;;;;;;;7.13;3.97;;;;;;;18.68;51.89;97768.91;10442608;28;20033;-23
2022/01/27 15:57:17;;;;;;;6.03;4.00;;;;;;;18.68;52.01;97773.97;10450641;28;20040;-23
2022/01/27 16:02:18;;;;;;;8.40;4.73;;;;;;;18.66;52.36;97771.41;10458449;28;20161;-23
2022/01/27 16:07:18;;;;;;;7.75;5.00;;;;;;;18.67;52.09;97772.28;10430852;28;20541;-23
2022/01/27 16:12:19;;;;;;;6.90;4.70;;;;;;;18.44;52.36;97738.06;10415969;28;20033;-23
2022/01/27 16:17:20;;;;;;;8.68;5.35;;;;;;;18.63;52.37;97798.41;10416715;28;20034;-23
2022/01/27 16:22:26;;;;;;;6.18;4.43;;;;;;;18.64;52.17;97789.97;10453184;28;20059;-23
2022/01/27 16:27:27;;;;;;;9.45;5.28;;;;;;;18.66;52.08;97793.41;10434133;28;20068;-23
2022/01/27 16:32:27;;;;;;;7.57;4.80;;;;;;;18.68;52.20;97809.50;10415381;28;20084;-23
2022/01/27 16:37:29;;;;;;;8.10;4.73;;;;;;;18.68;52.16;97796.81;10455906;28;20043;-23
2022/01/27 16:42:29;;;;;;;9.10;4.82;;;;;;;18.66;52.35;97803.53;10455134;28;20287;-20
2022/01/27 16:47:29;;;;;;;7.97;3.97;;;;;;;18.70;52.09;97811.22;10456631;28;20037;-22
2022/01/27 16:52:30;;;;;;;5.87;4.43;;;;;;;18.73;51.92;97805.31;10425584;28;20488;-23
2022/01/27 16:57:30;;;;;;;9.63;5.13;;;;;;;18.77;52.08;97805.41;10436225;28;20095;-23
2022/01/27 17:02:30;;;;;;;7.60;4.88;;;;;;;18.69;51.93;97808.66;10453383;28;20283;-22
2022/01/27 17:07:31;;;;;;;10.33;5.00;;;;;;;18.71;52.30;97805.31;10448660;28;20033;-22
2022/01/27 17:12:31;;;;;;;10.53;5.50;;;;;;;18.72;52.54;97807.03;10430465;28;20037;-22
2022/01/27 17:17:32;;;;;;;7.93;4.65;;;;;;;18.68;52.17;97815.41;10413749;28;20287;-23
2022/01/27 17:22:33;;;;;;;6.37;4.40;;;;;;;18.70;52.07;97818.84;10451264;28;20108;-23
2022/01/27 17:27:34;;;;;;;6.45;4.53;;;;;;;18.68;52.24;97805.25;10431003;28;20064;-22
2022/01/27 17:32:36;;;;;;;10.85;4.85;;;;;;;18.66;52.25;97799.31;10414409;28;20029;-23
2022/01/27 17:37:37;;;;;;;9.38;5.28;;;;;;;18.67;52.37;97807.78;10413335;28;20029;-23
2022/01/27 17:42:50;;;;;;;7.13;5.22;;;;;;;18.64;52.03;97808.59;10413118;28;20037;-22
2022/01/27 17:47:54;;;;;;;5.07;4.20;;;;;;;18.60;52.25;97796.66;10377932;28;20033;-22
2022/01/27 17:52:55;;;;;;;8.10;4.30;;;;;;;18.61;52.04;97792.47;10410625;28;20412;-22
2022/01/27 17:57:55;;;;;;;6.45;4.32;;;;;;;18.63;52.17;97775.56;10392783;28;20033;-23
2022/01/27 18:02:56;;;;;;;10.67;4.10;;;;;;;18.68;51.98;97777.34;10402935;28;20037;-22
2022/01/27 18:07:56;;;;;;;6.60;4.20;;;;;;;18.76;51.85;97772.41;10397225;28;20371;-23
2022/01/27 18:12:56;;;;;;;7.20;4.40;;;;;;;18.72;51.96;97776.59;10410669;28;20056;-22
2022/01/27 18:17:57;;;;;;;7.90;4.10;;;;;;;18.71;52.27;97790.09;10408309;28;20028;-22
2022/01/27 18:22:57;;;;;;;7.27;4.63;;;;;;;18.53;52.47;97751.75;10416604;28;20303;-23
2022/01/27 18:27:58;;;;;;;8.03;3.57;;;;;;;18.71;52.61;97807.00;10404143;28;20603;-22
2022/01/27 18:32:58;;;;;;;7.37;4.50;;;;;;;18.71;52.77;97814.59;10408891;28;20025;-23
2022/01/27 18:37:59;;;;;;;7.70;3.90;;;;;;;18.71;52.97;97819.66;10404927;28;20300;-23
2022/01/27 18:42:59;;;;;;;6.47;4.27;;;;;;;18.66;53.03;97819.59;10413247;28;20033;-23
2022/01/27 18:47:59;;;;;;;6.67;4.70;;;;;;;18.70;52.76;97834.06;10408925;28;20503;-22
2022/01/27 18:53:00;;;;;;;9.20;4.22;;;;;;;18.67;52.80;97821.31;10409634;28;20065;-22
2022/01/27 18:58:00;;;;;;;5.07;4.00;;;;;;;18.67;52.66;97810.31;10435212;28;20617;-22
2022/01/27 19:03:02;;;;;;;11.80;4.80;;;;;;;18.66;52.88;97811.16;10436515;28;20515;-23
2022/01/27 19:08:03;;;;;;;6.30;3.90;;;;;;;18.70;52.67;97797.69;10393155;28;20520;-23
2022/01/27 19:13:03;;;;;;;5.82;3.97;;;;;;;18.73;52.50;97802.78;10388567;28;20044;-23
2022/01/27 19:18:05;;;;;;;4.68;4.00;;;;;;;18.72;52.41;97803.63;10395565;28;20038;-23
2022/01/27 19:23:07;;;;;;;8.55;5.07;;;;;;;18.76;52.38;97790.19;10407094;28;20407;-23
2022/01/27 19:28:08;;;;;;;10.60;5.28;;;;;;;18.79;52.54;97780.06;10379948;28;20034;-22
2022/01/27 19:33:10;;;;;;;9.60;5.03;;;;;;;18.82;52.85;97808.03;10368660;28;20048;-23
2022/01/27 19:38:10;;;;;;;8.23;4.50;;;;;;;18.78;53.06;97807.13;10398366;28;20042;-23
2022/01/27 19:43:10;;;;;;;7.67;4.83;;;;;;;18.77;53.03;97807.94;10371794;28;20787;-23
2022/01/27 19:48:12;;;;;;;7.53;4.80;;;;;;;18.75;52.99;97793.53;10385965;28;20033;-23
2022/01/27 19:53:13;;;;;;;7.00;4.97;;;;;;;18.75;52.84;97811.31;10369760;28;20042;-23
2022/01/27 19:58:13;;;;;;;8.77;4.80;;;;;;;18.75;52.36;97808.75;10386748;28;20042;-23
2022/01/27 20:03:14;;;;;;;8.57;5.20;;;;;;;18.73;52.12;97797.72;10361328;28;20504;-22
2022/01/27 20:08:14;;;;;;;6.23;4.70;;;;;;;18.71;51.90;97801.91;10390568;28;20409;-22
2022/01/27 20:13:18;;;;;;;8.02;5.88;;;;;;;18.81;50.77;97814.78;10373780;28;20423;-22
2022/01/27 20:18:20;;;;;;;7.40;5.53;;;;;;;18.73;51.61;97823.09;10375481;28;20066;-22
2022/01/27 20:23:24;;;;;;;8.27;4.88;;;;;;;18.65;51.76;97815.34;10365095;28;20451;-22
2022/01/27 20:28:24;;;;;;;8.48;5.03;;;;;;;18.61;51.84;97810.22;10373536;28;20511;-22
2022/01/27 20:33:26;;;;;;;6.45;4.68;;;;;;;18.66;51.91;97832.28;10392620;28;20187;-22
2022/01/27 20:38:27;;;;;;;8.63;4.55;;;;;;;18.63;51.92;97836.44;10365772;28;20034;-22
2022/01/27 20:43:28;;;;;;;6.72;4.53;;;;;;;18.66;51.57;97834.81;10403351;28;20112;-22
2022/01/27 20:48:29;;;;;;;5.53;3.92;;;;;;;18.67;52.00;97843.28;10418328;28;20119;-23
2022/01/27 20:53:30;;;;;;;4.78;4.03;;;;;;;18.67;51.69;97843.28;10422287;28;20052;-23
2022/01/27 20:58:30;;;;;;;6.82;3.90;;;;;;;18.70;51.74;97848.41;10415840;28;20389;-23
2022/01/27 21:03:31;;;;;;;6.60;4.43;;;;;;;18.68;51.86;97850.91;10413647;28;20519;-23
2022/01/27 21:08:32;;;;;;;5.27;4.10;;;;;;;18.71;51.62;97850.13;10385355;28;20304;-23
2022/01/27 21:13:32;;;;;;;4.22;3.75;;;;;;;18.71;51.81;97847.56;10417094;28;20727;-23
2022/01/27 21:18:35;;;;;;;8.35;4.10;;;;;;;18.78;51.82;97855.34;10411354;28;20117;-23
2022/01/27 21:23:35;;;;;;;9.10;4.60;;;;;;;18.74;52.66;97840.03;10420484;28;20061;-23
2022/01/27 21:28:37;;;;;;;7.70;4.60;;;;;;;18.73;52.41;97858.59;10428234;28;20068;-23
2022/01/27 21:33:37;;;;;;;6.78;4.00;;;;;;;18.69;52.99;97872.06;10423346;28;20110;-23
2022/01/27 21:38:38;;;;;;;8.53;4.80;;;;;;;18.68;52.58;97871.22;10453757;28;20117;-23
2022/01/27 21:43:38;;;;;;;7.95;4.28;;;;;;;18.67;52.65;97873.75;10428613;28;20299;-23
2022/01/27 21:48:42;;;;;;;7.20;4.40;;;;;;;18.62;52.73;97865.19;10413625;28;20033;-23
2022/01/27 21:53:43;;;;;;;6.47;3.95;;;;;;;18.61;52.72;97866.88;10453764;28;20076;-23
2022/01/27 21:58:44;;;;;;;8.83;4.43;;;;;;;18.59;52.95;97876.13;10420609;28;20506;-22
2022/01/27 22:03:44;;;;;;;6.53;3.85;;;;;;;18.52;52.92;97855.72;10412374;28;20404;-23
2022/01/27 22:08:44;;;;;;;7.30;3.93;;;;;;;18.59;52.87;97880.34;10409430;28;20044;-23
2022/01/27 22:13:45;;;;;;;8.90;4.00;;;;;;;18.59;52.81;97885.44;10443811;28;20801;-23
2022/01/27 22:18:45;;;;;;;6.83;3.97;;;;;;;18.59;52.78;97885.44;10447188;28;20508;-23
2022/01/27 22:23:45;;;;;;;5.67;4.03;;;;;;;18.60;52.83;97889.66;10411657;28;20381;-23
2022/01/27 22:28:46;;;;;;;7.13;3.90;;;;;;;18.64;52.79;97896.50;10443525;28;20554;-23
2022/01/27 22:33:46;;;;;;;7.40;3.77;;;;;;;18.59;52.45;97887.97;10452299;28;20043;-23
2022/01/27 22:38:46;;;;;;;6.23;3.87;;;;;;;18.62;52.69;97923.53;10417970;28;20080;-23
2022/01/27 22:43:47;;;;;;;4.27;3.67;;;;;;;18.63;52.78;97932.84;10410870;28;20029;-23
2022/01/27 22:48:47;;;;;;;4.20;3.17;;;;;;;18.59;52.81;97946.31;10416384;28;20029;-23
2022/01/27 22:53:48;;;;;;;9.80;5.27;;;;;;;18.59;52.57;97951.38;10451857;28;20060;-22
2022/01/27 22:58:51;;;;;;;6.43;3.70;;;;;;;18.63;52.89;97942.97;10417148;28;20507;-23
2022/01/27 23:03:52;;;;;;;9.95;4.88;;;;;;;18.60;52.78;97948.00;10418900;28;20119;-23
2022/01/27 23:08:52;;;;;;;5.38;4.72;;;;;;;18.60;52.57;97948.84;10449873;28;20120;-23
2022/01/27 23:14:01;;;;;;;5.23;3.60;;;;;;;18.59;52.71;97959.00;10448847;28;20048;-23
2022/01/27 23:24:11;;;;;;;5.85;3.53;;;;;;;18.62;52.67;97961.56;10409416;28;20087;-23
2022/01/27 23:29:14;;;;;;;4.88;3.40;;;;;;;18.63;52.51;97963.28;10444902;28;20029;-23
2022/01/27 23:34:15;;;;;;;4.60;3.20;;;;;;;18.61;52.67;97965.81;10449021;28;20053;-22
2022/01/27 23:44:30;;;;;;;7.30;3.93;;;;;;;18.59;52.75;97971.66;10408839;28;20029;-23
2022/01/27 23:49:45;;;;;;;4.45;3.13;;;;;;;18.58;52.79;97980.09;10408805;28;20033;-23
